createdAt,value
2017-07-18T00:01:58.811Z,99.90
2017-07-18T00:04:27.110Z,99.90
2017-07-18T00:07:10.090Z,99.90
2017-07-18T00:09:38.399Z,99.90
2017-07-18T00:12:07.411Z,99.90
2017-07-18T00:14:35.657Z,99.90
2017-07-18T00:17:03.955Z,99.90
2017-07-18T00:19:32.184Z,99.90
2017-07-18T00:22:13.711Z,99.90
2017-07-18T00:24:41.969Z,99.90
2017-07-18T00:27:10.998Z,99.90
2017-07-18T00:29:39.289Z,99.90
2017-07-18T00:32:07.540Z,99.90
2017-07-18T00:37:37.304Z,99.90
2017-07-18T00:40:05.599Z,99.90
2017-07-18T00:42:33.865Z,99.90
2017-07-18T00:45:02.174Z,99.90
2017-07-18T00:53:30.926Z,99.90
2017-07-18T00:55:59.182Z,99.90
2017-07-18T00:58:27.428Z,99.90
2017-07-18T01:00:55.766Z,99.90
2017-07-18T01:03:50.382Z,99.90
2017-07-18T01:06:19.025Z,99.90
2017-07-18T01:08:47.291Z,99.90
2017-07-18T01:11:16.290Z,99.90
2017-07-18T01:13:44.624Z,99.90
2017-07-18T01:16:25.946Z,99.90
2017-07-18T01:24:54.627Z,99.90
2017-07-18T01:27:23.246Z,99.90
2017-07-18T01:29:51.506Z,99.90
2017-07-18T01:32:20.056Z,99.90
2017-07-18T01:34:48.329Z,99.90
2017-07-18T01:37:16.580Z,99.90
2017-07-18T01:39:44.916Z,99.90
2017-07-18T01:47:57.687Z,99.90
2017-07-18T01:50:25.943Z,99.90
2017-07-18T01:52:55.033Z,99.90
2017-07-18T01:55:23.312Z,99.90
2017-07-18T02:03:52.219Z,99.90
2017-07-18T02:06:20.450Z,99.90
2017-07-18T02:08:48.700Z,99.90
2017-07-18T02:14:37.664Z,99.90
2017-07-18T02:17:05.900Z,99.90
2017-07-18T02:19:34.128Z,99.90
2017-07-18T02:22:03.190Z,99.90
2017-07-18T02:27:32.736Z,99.90
2017-07-18T02:33:01.120Z,99.90
2017-07-18T02:35:29.368Z,99.90
2017-07-18T02:40:58.546Z,99.90
2017-07-18T02:43:38.784Z,99.90
2017-07-18T02:46:07.081Z,99.90
2017-07-18T02:48:36.099Z,99.90
2017-07-18T02:51:04.351Z,99.90
2017-07-18T02:59:34.069Z,99.90
2017-07-18T03:02:02.309Z,99.90
2017-07-18T03:04:30.600Z,99.90
2017-07-18T03:12:59.918Z,99.90
2017-07-18T03:15:28.180Z,99.90
2017-07-18T03:17:56.428Z,99.90
2017-07-18T03:23:25.737Z,99.90
2017-07-18T03:25:53.985Z,99.90
2017-07-18T03:28:22.235Z,99.90
2017-07-18T03:30:50.567Z,99.90
2017-07-18T03:36:19.470Z,99.90
2017-07-18T03:38:47.704Z,99.90
2017-07-18T03:41:16.024Z,99.90
2017-07-18T03:43:45.041Z,99.90
2017-07-18T03:46:13.301Z,99.90
2017-07-18T03:48:42.342Z,99.90
2017-07-18T03:54:00.465Z,99.90
2017-07-18T03:56:28.781Z,99.90
2017-07-18T03:58:57.060Z,99.90
2017-07-18T04:04:25.634Z,99.90
2017-07-18T04:06:53.886Z,99.90
2017-07-18T04:09:22.913Z,99.90
2017-07-18T04:11:51.188Z,99.90
2017-07-18T04:14:19.450Z,99.90
2017-07-18T04:16:48.087Z,99.90
2017-07-18T04:19:37.038Z,99.90
2017-07-18T04:22:05.320Z,99.90
2017-07-18T04:24:33.578Z,99.90
2017-07-18T04:27:01.875Z,99.90
2017-07-18T04:32:38.622Z,99.90
2017-07-18T04:35:06.928Z,99.90
2017-07-18T04:37:35.176Z,99.90
2017-07-18T04:40:03.483Z,99.90
2017-07-18T04:42:31.738Z,99.90
2017-07-18T04:48:00.437Z,99.90
2017-07-18T04:50:28.690Z,99.90
2017-07-18T04:52:56.944Z,99.90
2017-07-18T04:55:26.298Z,99.90
2017-07-18T04:58:13.992Z,99.90
2017-07-18T05:09:43.736Z,99.90
2017-07-18T05:18:23.462Z,99.90
2017-07-18T05:20:51.704Z,99.90
2017-07-18T05:38:23.715Z,99.90
2017-07-18T05:55:55.609Z,99.90
2017-07-18T05:58:37.266Z,99.90
2017-07-18T06:04:06.477Z,99.90
2017-07-18T06:06:40.353Z,99.90
2017-07-18T06:12:08.697Z,99.90
2017-07-18T06:17:39.046Z,99.90
2017-07-18T06:23:22.803Z,99.90
2017-07-18T06:31:51.599Z,99.90
2017-07-18T06:40:09.364Z,99.90
2017-07-18T06:48:39.035Z,99.90
2017-07-18T06:51:07.629Z,99.90
2017-07-18T07:03:05.413Z,99.90
2017-07-18T07:05:33.698Z,99.90
2017-07-18T07:08:02.313Z,99.90
2017-07-18T07:10:30.635Z,99.90
2017-07-18T07:12:59.644Z,99.90
2017-07-18T07:15:27.902Z,99.90
2017-07-18T07:17:59.374Z,99.90
2017-07-18T07:20:27.647Z,99.90
2017-07-18T07:22:55.897Z,99.90
2017-07-18T07:25:24.928Z,99.90
2017-07-18T07:27:53.184Z,99.90
2017-07-18T07:30:21.761Z,99.90
2017-07-18T07:32:49.999Z,99.90
2017-07-18T07:35:18.503Z,99.90
2017-07-18T07:37:46.835Z,99.90
2017-07-18T07:40:15.093Z,98.10
2017-07-18T07:42:43.336Z,99.90
2017-07-18T07:48:11.889Z,99.90
2017-07-18T07:50:46.729Z,99.90
2017-07-18T07:56:15.806Z,95.80
2017-07-18T07:58:44.037Z,95.60
2017-07-18T08:01:43.474Z,93.10
2017-07-18T08:04:11.702Z,93.30
2017-07-18T08:06:39.956Z,94.70
2017-07-18T08:11:45.475Z,90.80
2017-07-18T08:14:13.793Z,86.90
2017-07-18T08:16:42.045Z,89.30
2017-07-18T08:19:10.301Z,81.70
2017-07-18T08:21:39.638Z,85.40
2017-07-18T08:24:24.766Z,85.00
2017-07-18T08:26:53.851Z,82.60
2017-07-18T08:44:15.839Z,75.50
2017-07-18T08:47:07.387Z,76.60
2017-07-18T08:50:03.337Z,72.20
2017-07-18T08:52:38.234Z,76.10
2017-07-18T08:55:06.542Z,70.70
2017-07-18T08:58:02.540Z,76.40
2017-07-18T09:03:37.986Z,75.80
2017-07-18T09:09:06.848Z,69.50
2017-07-18T09:11:38.417Z,68.80
2017-07-18T09:14:06.739Z,70.00
2017-07-18T09:17:02.532Z,64.70
2017-07-18T09:26:02.979Z,61.40
2017-07-18T09:28:37.671Z,59.30
2017-07-18T09:31:06.083Z,65.50
2017-07-18T09:33:34.305Z,63.20
2017-07-18T09:36:06.119Z,66.70
2017-07-18T09:38:40.585Z,62.60
2017-07-18T09:41:08.865Z,60.80
2017-07-18T09:43:37.128Z,60.00
2017-07-18T09:46:05.388Z,58.60
2017-07-18T09:48:33.694Z,64.00
2017-07-18T09:51:05.262Z,59.30
2017-07-18T09:54:04.667Z,60.60
2017-07-18T09:57:03.576Z,63.00
2017-07-18T09:59:41.900Z,63.40
2017-07-18T10:02:10.125Z,57.90
2017-07-18T10:05:05.091Z,60.10
2017-07-18T10:08:03.981Z,63.40
2017-07-18T10:13:32.127Z,56.30
2017-07-18T10:16:01.141Z,52.90
2017-07-18T10:27:31.179Z,58.80
2017-07-18T10:30:06.424Z,54.00
2017-07-18T10:33:03.291Z,57.40
2017-07-18T10:39:02.773Z,51.80
2017-07-18T10:41:31.043Z,51.80
2017-07-18T10:44:05.421Z,52.50
2017-07-18T10:47:03.926Z,55.50
2017-07-18T10:55:29.617Z,54.20
2017-07-18T10:58:05.027Z,53.50
2017-07-18T11:00:33.423Z,53.00
2017-07-18T11:03:15.289Z,54.30
2017-07-18T11:05:43.630Z,54.30
2017-07-18T11:11:02.802Z,55.50
2017-07-18T11:13:38.680Z,55.30
2017-07-18T11:19:37.991Z,52.80
2017-07-18T11:22:06.998Z,52.20
2017-07-18T11:25:03.356Z,51.90
2017-07-18T11:30:38.961Z,50.40
2017-07-18T11:36:05.153Z,48.00
2017-07-18T11:39:03.060Z,48.10
2017-07-18T11:50:33.343Z,49.10
2017-07-18T11:56:36.282Z,48.30
2017-07-18T11:59:05.423Z,48.40
2017-07-18T12:01:40.804Z,48.00
2017-07-18T12:04:09.052Z,47.90
2017-07-18T12:06:37.310Z,48.30
2017-07-18T12:12:05.752Z,49.40
2017-07-18T12:14:34.020Z,48.90
2017-07-18T12:17:02.246Z,49.60
2017-07-18T12:19:30.562Z,46.80
2017-07-18T12:21:58.815Z,48.40
2017-07-18T12:24:27.055Z,52.20
2017-07-18T12:29:56.064Z,47.90
2017-07-18T12:32:24.323Z,48.80
2017-07-18T12:34:53.364Z,48.50
2017-07-18T12:37:21.666Z,48.40
2017-07-18T12:39:49.894Z,51.50
2017-07-18T12:45:37.739Z,45.40
2017-07-18T12:48:06.738Z,48.80
2017-07-18T12:50:35.780Z,49.20
2017-07-18T12:53:04.006Z,49.20
2017-07-18T12:55:39.487Z,45.60
2017-07-18T13:01:08.119Z,44.40
2017-07-18T13:03:36.383Z,46.70
2017-07-18T13:06:04.658Z,47.30
2017-07-18T13:08:32.894Z,47.70
2017-07-18T13:14:02.363Z,49.20
2017-07-18T13:16:30.609Z,48.70
2017-07-18T13:18:59.549Z,47.30
2017-07-18T13:21:27.870Z,47.70
2017-07-18T13:32:57.951Z,44.40
2017-07-18T13:35:26.203Z,44.90
2017-07-18T13:43:56.509Z,42.90
2017-07-18T13:46:55.397Z,43.20
2017-07-18T13:49:24.379Z,42.70
2017-07-18T14:06:56.816Z,41.10
2017-07-18T14:09:25.080Z,41.10
2017-07-18T14:11:54.070Z,38.60
2017-07-18T14:14:23.688Z,42.30
2017-07-18T14:16:52.683Z,38.50
2017-07-18T14:19:20.934Z,38.40
2017-07-18T14:33:50.399Z,37.40
2017-07-18T14:42:19.711Z,35.90
2017-07-18T14:44:47.950Z,36.40
2017-07-18T14:47:16.947Z,36.90
2017-07-18T14:52:46.007Z,37.70
2017-07-18T14:55:14.255Z,37.80
2017-07-18T14:57:42.510Z,38.40
2017-07-18T15:00:10.811Z,39.70
2017-07-18T15:05:39.672Z,39.80
2017-07-18T15:08:07.941Z,39.20
2017-07-18T15:10:36.165Z,39.70
2017-07-18T15:13:04.578Z,38.30
2017-07-18T15:15:32.794Z,39.50
2017-07-18T15:18:01.791Z,33.80
2017-07-18T15:20:30.079Z,33.70
2017-07-18T15:22:58.333Z,35.40
2017-07-18T15:25:26.587Z,35.80
2017-07-18T15:27:54.874Z,36.70
2017-07-18T15:36:39.470Z,37.30
2017-07-18T15:39:08.503Z,36.50
2017-07-18T15:41:36.764Z,36.40
2017-07-18T15:44:05.048Z,37.60
2017-07-18T15:49:35.259Z,35.20
2017-07-18T15:52:04.267Z,35.70
2017-07-18T15:54:32.731Z,35.70
2017-07-18T16:03:01.934Z,33.80
2017-07-18T16:05:30.168Z,36.80
2017-07-18T16:07:58.477Z,37.30
2017-07-18T16:10:26.778Z,35.60
2017-07-18T16:12:55.013Z,35.50
2017-07-18T16:15:23.259Z,33.00
2017-07-18T16:17:51.541Z,35.70
2017-07-18T16:20:19.808Z,35.00
2017-07-18T16:22:48.904Z,35.30
2017-07-18T16:28:17.348Z,34.40
2017-07-18T16:30:45.642Z,35.40
2017-07-18T16:33:13.890Z,35.50
2017-07-18T16:35:43.268Z,35.40
2017-07-18T16:41:38.485Z,37.70
2017-07-18T16:47:08.162Z,38.10
2017-07-18T16:49:36.394Z,38.10
2017-07-18T16:55:04.805Z,36.70
2017-07-18T17:00:33.115Z,37.10
2017-07-18T17:03:01.425Z,37.60
2017-07-18T17:05:29.653Z,36.50
2017-07-18T17:07:58.158Z,37.30
2017-07-18T17:13:26.718Z,37.60
2017-07-18T17:15:54.964Z,37.10
2017-07-18T17:18:23.223Z,36.30
2017-07-18T17:20:51.513Z,37.70
2017-07-18T17:23:39.710Z,36.20
2017-07-18T17:26:07.979Z,37.90
2017-07-18T17:28:36.235Z,36.80
2017-07-18T17:31:04.490Z,35.90
2017-07-18T17:42:35.480Z,37.90
2017-07-18T17:45:04.223Z,37.40
2017-07-18T17:47:32.472Z,37.40
2017-07-18T17:59:02.365Z,39.40
2017-07-18T18:01:30.654Z,39.40
2017-07-18T18:03:58.903Z,40.00
2017-07-18T18:06:27.255Z,40.00
2017-07-18T18:08:55.513Z,40.30
2017-07-18T18:11:23.761Z,39.80
2017-07-18T18:13:52.093Z,39.30
2017-07-18T18:16:21.142Z,40.40
2017-07-18T18:21:49.429Z,39.50
2017-07-18T18:24:18.021Z,39.80
2017-07-18T18:26:47.453Z,40.70
2017-07-18T18:29:16.515Z,41.20
2017-07-18T18:46:49.489Z,43.20
2017-07-18T18:55:19.245Z,43.40
2017-07-18T18:57:47.471Z,43.40
2017-07-18T19:00:38.277Z,43.10
2017-07-18T19:09:07.698Z,45.50
2017-07-18T19:14:38.621Z,45.30
2017-07-18T19:17:06.878Z,45.30
2017-07-18T19:19:35.193Z,45.00
2017-07-18T19:22:03.434Z,45.60
2017-07-18T19:24:31.675Z,45.80
2017-07-18T19:30:01.379Z,46.40
2017-07-18T19:32:29.624Z,46.90
2017-07-18T19:34:58.474Z,47.20
2017-07-18T19:37:26.771Z,47.40
2017-07-18T19:45:55.751Z,51.30
2017-07-18T19:48:25.262Z,51.10
2017-07-18T19:50:53.560Z,51.00
2017-07-18T19:53:21.820Z,51.10
2017-07-18T19:55:50.885Z,49.90
2017-07-18T20:10:21.433Z,52.20
2017-07-18T20:15:49.754Z,52.20
2017-07-18T20:18:17.996Z,51.70
2017-07-18T20:20:46.656Z,52.00
2017-07-18T20:26:14.856Z,51.50
2017-07-18T20:28:43.854Z,53.10
2017-07-18T20:31:12.109Z,52.50
2017-07-18T20:33:42.215Z,53.20
2017-07-18T20:39:11.228Z,54.10
2017-07-18T20:44:40.881Z,54.50
2017-07-18T20:47:09.902Z,54.30
2017-07-18T20:55:38.972Z,54.30
2017-07-18T20:58:07.210Z,54.30
2017-07-18T21:00:35.492Z,54.10
2017-07-18T21:03:03.770Z,54.40
2017-07-18T21:11:32.917Z,55.40
2017-07-18T21:14:01.174Z,55.70
2017-07-18T21:16:29.437Z,55.80
2017-07-18T21:18:58.463Z,56.10
2017-07-18T21:24:40.654Z,56.60
2017-07-18T21:27:10.395Z,56.90
2017-07-18T21:29:38.644Z,56.80
2017-07-18T21:35:13.377Z,57.20
2017-07-18T21:37:42.255Z,57.50
2017-07-18T21:40:10.499Z,57.60
2017-07-18T21:42:38.805Z,57.80
2017-07-18T21:45:07.080Z,58.30
2017-07-18T21:50:36.939Z,58.30
2017-07-18T21:53:05.200Z,58.20
2017-07-18T21:55:33.476Z,58.60
2017-07-18T21:58:02.778Z,59.10
2017-07-18T22:00:51.822Z,59.80
2017-07-18T22:06:20.257Z,59.50
2017-07-18T22:08:48.966Z,60.70
2017-07-18T22:11:17.212Z,60.50
2017-07-18T22:16:45.999Z,61.50
2017-07-18T22:19:15.100Z,61.20
2017-07-18T22:21:44.107Z,60.60
2017-07-18T22:24:13.099Z,61.70
2017-07-18T22:26:42.551Z,61.20
2017-07-18T22:29:10.813Z,61.20
2017-07-18T22:31:39.065Z,61.70
2017-07-18T22:34:37.702Z,62.50
2017-07-18T22:37:05.944Z,62.50
2017-07-18T22:42:41.420Z,62.70
2017-07-18T22:48:11.213Z,63.50
2017-07-18T22:50:39.464Z,63.60
2017-07-18T22:53:08.483Z,64.30
2017-07-18T22:55:36.860Z,64.00
2017-07-18T23:01:05.640Z,63.90
2017-07-18T23:03:34.736Z,65.60
2017-07-18T23:06:03.753Z,65.40
2017-07-18T23:08:32.005Z,64.40
2017-07-18T23:17:01.016Z,65.70
2017-07-18T23:19:29.349Z,66.40
2017-07-18T23:21:58.351Z,65.60
2017-07-18T23:27:39.979Z,67.90
2017-07-18T23:30:09.125Z,67.90
2017-07-18T23:32:38.148Z,67.70
2017-07-18T23:35:06.430Z,67.60
2017-07-18T23:37:34.679Z,67.80
2017-07-18T23:40:02.976Z,68.00
2017-07-18T23:42:39.318Z,68.10
2017-07-18T23:45:09.013Z,67.40
2017-07-18T23:47:38.022Z,68.90
2017-07-18T23:50:06.310Z,68.90
2017-07-18T23:55:35.507Z,71.10
2017-07-18T23:58:03.758Z,70.70
